Time;durP1;ratioP1;P1;durP2;ratioP2;P2;SDS_P1;SDS_P2;PMS_P1;PMS_P2;Temp;Humidity;BMP_temperature;BMP_pressure;BME280_temperature;BME280_humidity;BME280_pressure;Samples;Min_cycle;Max_cycle;Signal;HPM_P1;HPM_P2
2023/12/28 00:00:07;;;;;;;5.78;2.65;;;8.80;99.90;;;8.76;78.77;100038.22;5072975;28;20041;-85
2023/12/28 00:02:35;;;;;;;5.18;2.40;;;8.70;99.90;;;8.70;79.70;100038.25;5080850;28;20424;-85
2023/12/28 00:05:03;;;;;;;6.35;2.80;;;8.70;99.90;;;8.68;80.17;100041.09;5078865;28;20056;-84
2023/12/28 00:07:32;;;;;;;6.03;2.50;;;8.70;99.90;;;8.77;80.18;100039.00;5080051;28;20066;-84
2023/12/28 00:10:00;;;;;;;4.63;2.40;;;8.70;99.90;;;8.79;80.35;100036.16;5078728;28;20041;-85
2023/12/28 00:12:27;;;;;;;4.47;2.20;;;8.70;99.90;;;8.78;80.72;100035.31;5078805;28;20044;-85
2023/12/28 00:14:55;;;;;;;6.05;2.33;;;8.70;99.90;;;8.75;81.21;100038.44;5078552;28;20049;-85
2023/12/28 00:17:22;;;;;;;6.13;2.80;;;8.70;99.90;;;8.74;81.75;100040.28;5078038;28;20037;-85
2023/12/28 00:19:49;;;;;;;6.15;2.55;;;8.70;99.90;;;8.80;81.96;100037.78;5079712;28;20056;-84
2023/12/28 00:22:17;;;;;;;5.50;2.70;;;8.90;99.90;;;8.77;82.28;100033.69;5081014;28;20100;-84
2023/12/28 00:24:46;;;;;;;5.80;2.60;;;8.80;99.90;;;8.81;82.43;100045.56;5048272;28;20079;-84
2023/12/28 00:27:14;;;;;;;5.88;2.70;;;8.80;99.90;;;8.81;82.58;100036.75;5099480;28;20036;-85
2023/12/28 00:29:42;;;;;;;7.07;2.80;;;8.80;99.90;;;8.87;82.61;100036.72;5098994;28;20044;-84
2023/12/28 00:32:10;;;;;;;4.05;2.38;;;8.80;99.90;;;8.93;82.61;100040.38;5100757;28;20051;-85
2023/12/28 00:34:39;;;;;;;6.60;3.05;;;8.90;99.90;;;8.97;82.27;100038.94;5097743;28;20044;-85
2023/12/28 00:37:07;;;;;;;9.32;3.42;;;8.90;99.90;;;8.94;82.47;100042.84;5045278;28;20044;-84
2023/12/28 00:39:35;;;;;;;4.93;2.70;;;8.90;99.90;;;8.94;82.80;100042.03;5077896;28;20044;-84
2023/12/28 00:42:05;;;;;;;8.00;3.17;;;8.90;99.90;;;8.94;82.83;100044.69;5061162;28;20051;-85
2023/12/28 00:44:34;;;;;;;6.50;2.70;;;8.90;99.90;;;8.96;82.80;100050.63;5077971;28;20063;-84
2023/12/28 00:47:01;;;;;;;7.18;2.75;;;8.90;99.90;;;8.94;83.03;100042.84;5060486;28;20128;-84
2023/12/28 00:49:29;;;;;;;7.88;2.70;;;8.90;99.90;;;8.96;83.18;100048.75;5079327;28;20052;-84
2023/12/28 00:51:56;;;;;;;6.97;2.63;;;8.90;99.90;;;8.97;83.05;100053.06;5078246;28;20102;-84
2023/12/28 00:54:26;;;;;;;8.48;2.60;;;9.00;99.90;;;9.00;82.95;100049.16;5078416;28;20496;-84
2023/12/28 00:56:53;;;;;;;4.97;2.45;;;9.00;99.90;;;9.04;82.85;100053.03;5061653;28;20068;-85
2023/12/28 00:59:22;;;;;;;4.93;2.30;;;9.00;99.90;;;9.05;82.82;100041.38;5077947;28;20040;-85
2023/12/28 01:01:50;;;;;;;5.18;2.38;;;9.00;99.90;;;9.05;82.89;100046.69;5077153;28;20097;-84
2023/12/28 01:04:18;;;;;;;5.10;2.47;;;9.10;99.90;;;8.98;83.22;100045.91;5075145;28;20487;-84
2023/12/28 01:06:45;;;;;;;4.68;2.33;;;9.00;99.90;;;9.02;83.39;100050.56;5075276;28;20040;-84
2023/12/28 01:09:13;;;;;;;4.20;2.05;;;9.00;99.90;;;9.05;83.53;100049.34;5073888;28;20098;-84
2023/12/28 01:11:40;;;;;;;7.05;2.72;;;9.10;99.90;;;9.01;83.39;100042.81;5054178;28;20088;-84
2023/12/28 01:14:08;;;;;;;5.47;2.33;;;9.10;99.90;;;9.03;83.75;100044.25;5053661;28;20530;-84
2023/12/28 01:16:39;;;;;;;3.88;1.98;;;9.10;99.90;;;9.05;83.83;100040.56;5074050;28;20051;-84
2023/12/28 01:19:06;;;;;;;6.47;2.40;;;9.20;99.90;;;9.09;83.98;100055.88;5057883;28;20049;-84
2023/12/28 01:21:34;;;;;;;4.22;2.33;;;9.20;99.90;;;9.12;83.69;100044.81;5040808;28;20037;-85
2023/12/28 01:24:00;;;;;;;5.75;2.50;;;9.20;99.90;;;9.14;83.39;100058.72;5059816;28;20489;-84
2023/12/28 01:26:29;;;;;;;6.50;2.72;;;9.20;99.90;;;9.18;83.32;100073.25;5069588;28;20044;-84
2023/12/28 01:28:58;;;;;;;5.63;2.35;;;9.30;99.90;;;9.20;83.13;100071.16;5077576;28;20051;-84
2023/12/28 01:31:25;;;;;;;5.35;2.40;;;9.30;99.90;;;9.20;83.28;100087.13;5076673;28;20036;-85
2023/12/28 01:33:54;;;;;;;7.63;2.42;;;9.30;99.90;;;9.22;83.22;100069.13;5077259;28;20058;-84
2023/12/28 01:36:23;;;;;;;7.00;2.83;;;9.40;99.90;;;9.26;83.47;100080.16;5077934;28;20047;-84
2023/12/28 01:38:51;;;;;;;5.82;2.45;;;9.40;99.90;;;9.27;83.36;100077.28;5044112;28;20052;-84
2023/12/28 01:41:18;;;;;;;4.85;2.53;;;9.40;99.90;;;9.25;83.09;100074.00;5058946;28;20075;-84
2023/12/28 01:43:46;;;;;;;5.70;2.30;;;9.40;99.90;;;9.26;82.86;100080.97;5074508;28;20055;-84
2023/12/28 01:46:17;;;;;;;4.50;2.17;;;9.40;99.90;;;9.32;82.85;100078.47;5054592;28;20064;-84
2023/12/28 01:48:49;;;;;;;5.07;2.60;;;9.40;99.90;;;9.28;83.19;100088.75;5056848;28;20045;-84
2023/12/28 01:51:20;;;;;;;5.13;2.67;;;9.40;99.90;;;9.29;83.31;100088.53;5056969;28;20049;-84
2023/12/28 01:53:52;;;;;;;8.30;2.53;;;9.40;99.90;;;9.32;82.96;100084.63;5054859;28;20424;-84
2023/12/28 01:56:20;;;;;;;6.45;2.83;;;9.40;99.90;;;9.27;82.73;100077.28;5055328;28;20040;-84
2023/12/28 01:58:50;;;;;;;8.65;2.67;;;9.40;99.90;;;9.27;82.76;100079.97;5046064;28;20052;-84
2023/12/28 02:01:18;;;;;;;4.20;2.08;;;9.40;99.90;;;9.34;83.08;100087.91;5055209;28;20464;-84
2023/12/28 02:03:46;;;;;;;6.30;2.63;;;9.60;99.90;;;9.36;82.61;100093.81;5056607;28;20041;-84
2023/12/28 02:06:18;;;;;;;4.70;2.40;;;9.40;99.90;;;9.33;82.55;100096.09;5055278;28;20516;-84
2023/12/28 02:08:46;;;;;;;6.28;2.42;;;9.50;99.90;;;9.37;82.67;100087.47;5088700;28;20141;-84
2023/12/28 02:11:14;;;;;;;6.53;2.38;;;9.50;99.90;;;9.36;82.39;100093.81;5056616;28;20109;-85
2023/12/28 02:13:42;;;;;;;5.90;2.55;;;9.50;99.90;;;9.33;82.66;100102.22;5055451;28;20049;-84
2023/12/28 02:16:17;;;;;;;6.03;2.38;;;9.40;99.90;;;9.37;82.79;100097.28;5057213;28;20041;-84
2023/12/28 02:18:50;;;;;;;6.30;2.42;;;9.40;99.90;;;9.37;82.49;100103.44;5039468;28;20044;-84
2023/12/28 02:21:21;;;;;;;5.35;2.60;;;9.50;99.90;;;9.40;82.63;100096.88;5072491;28;20053;-84
2023/12/28 02:23:49;;;;;;;5.70;2.47;;;9.50;99.90;;;9.36;82.26;100101.78;5055003;28;20045;-84
2023/12/28 02:26:18;;;;;;;5.18;2.40;;;9.50;99.90;;;9.34;82.42;100103.06;5038312;28;20044;-84
2023/12/28 02:28:46;;;;;;;5.50;2.88;;;9.40;99.90;;;9.32;82.53;100105.94;5054760;28;20092;-84
2023/12/28 02:31:22;;;;;;;6.72;2.70;;;9.50;99.90;;;9.37;82.33;100097.28;5055306;28;20048;-84
2023/12/28 02:33:59;;;;;;;4.68;2.15;;;9.50;99.90;;;9.39;82.26;100104.03;5038376;28;20045;-84
2023/12/28 02:36:28;;;;;;;5.68;2.75;;;9.50;99.90;;;9.39;82.35;100103.22;5056952;28;20048;-84
2023/12/28 02:38:59;;;;;;;5.40;2.70;;;9.50;99.90;;;9.39;82.33;100095.25;5055093;28;20614;-84
2023/12/28 02:41:29;;;;;;;;;;;9.50;99.90;;;9.39;82.16;100111.22;5084353;28;20051;-85
2023/12/28 02:43:56;;;;;;;5.65;2.53;;;9.50;99.90;;;9.36;82.02;100104.44;5077293;28;19924;-84
2023/12/28 02:46:24;;;;;;;6.05;2.42;;;9.50;99.90;;;9.35;82.26;100110.00;5080125;28;20037;-85
2023/12/28 02:48:52;;;;;;;5.63;2.60;;;9.50;99.90;;;9.39;82.16;100112.03;5062538;28;20503;-84
2023/12/28 02:51:20;;;;;;;7.15;2.75;;;9.50;99.90;;;9.40;81.94;100099.53;5078962;28;20044;-84
2023/12/28 02:53:47;;;;;;;5.00;2.38;;;9.50;99.90;;;9.44;81.76;100092.75;5078676;28;20052;-84
2023/12/28 02:56:15;;;;;;;6.10;2.45;;;9.50;99.90;;;9.44;81.60;100088.25;5062254;28;20078;-84
2023/12/28 02:58:44;;;;;;;6.45;2.47;;;9.50;99.90;;;9.40;81.27;100075.56;5078576;28;20036;-84
2023/12/28 03:01:12;;;;;;;5.55;2.53;;;9.50;99.90;;;9.40;81.25;100076.41;5079392;28;20044;-84
2023/12/28 03:03:39;;;;;;;6.70;2.58;;;9.50;99.90;;;9.46;81.29;100075.53;5079954;28;20094;-84
2023/12/28 03:06:06;;;;;;;5.53;2.60;;;9.50;99.90;;;9.48;80.97;100078.00;5080568;28;20052;-84
2023/12/28 03:08:34;;;;;;;5.13;2.60;;;9.50;99.90;;;9.45;81.06;100087.22;5081054;28;20106;-84
2023/12/28 03:11:01;;;;;;;5.50;2.60;;;9.50;99.90;;;9.46;81.23;100080.03;5080184;28;20066;-85
2023/12/28 03:13:28;;;;;;;7.55;2.80;;;9.50;99.90;;;9.46;81.43;100080.03;5081929;28;20043;-84
2023/12/28 03:15:57;;;;;;;7.07;3.10;;;9.50;99.90;;;9.46;81.29;100086.19;5080691;28;20571;-85
2023/12/28 03:18:25;;;;;;;4.97;2.55;;;9.50;99.90;;;9.40;81.51;100089.69;5079801;28;20492;-84
2023/12/28 03:20:55;;;;;;;4.95;2.70;;;9.50;99.90;;;9.42;81.58;100089.47;5080631;28;20040;-84
2023/12/28 03:23:24;;;;;;;4.83;2.60;;;9.50;99.90;;;9.44;81.85;100084.78;5061723;28;20091;-84
2023/12/28 03:25:51;;;;;;;5.88;2.70;;;9.50;99.90;;;9.42;81.74;100084.16;5061527;28;20040;-84
2023/12/28 03:28:20;;;;;;;5.53;2.42;;;9.50;99.90;;;9.40;81.86;100086.22;5077999;28;20040;-84
2023/12/28 03:30:47;;;;;;;6.60;2.58;;;9.50;99.90;;;9.40;81.82;100086.22;5080001;28;20051;-84
2023/12/28 03:33:16;;;;;;;10.38;3.22;;;9.50;99.90;;;9.43;81.68;100094.59;5078287;28;20517;-84
2023/12/28 03:35:44;;;;;;;7.20;2.85;;;9.50;99.90;;;9.45;81.69;100079.22;5077972;28;20086;-84
2023/12/28 03:38:11;;;;;;;6.95;2.88;;;9.60;99.90;;;9.45;81.63;100081.88;5077951;28;20514;-85
2023/12/28 03:40:38;;;;;;;7.72;2.80;;;9.60;99.90;;;9.46;81.86;100077.38;5078397;28;20532;-84
2023/12/28 03:43:06;;;;;;;8.20;3.00;;;9.60;99.90;;;9.45;82.07;100073.09;5097429;28;20105;-84
2023/12/28 03:45:34;;;;;;;7.55;3.03;;;9.60;99.90;;;9.45;81.78;100073.91;5097602;28;20044;-84
2023/12/28 03:48:01;;;;;;;5.88;2.70;;;9.60;99.90;;;9.45;81.91;100078.41;5096679;28;20128;-84
2023/12/28 03:50:30;;;;;;;7.38;3.40;;;9.70;99.90;;;9.49;81.66;100079.63;5077191;28;20503;-84
2023/12/28 03:52:58;;;;;;;8.00;2.75;;;9.60;99.90;;;9.52;81.50;100068.56;5059152;28;20052;-84
2023/12/28 03:55:27;;;;;;;8.82;2.70;;;9.60;99.90;;;9.52;81.50;100066.72;5058911;28;20032;-84
2023/12/28 03:57:55;;;;;;;7.50;2.92;;;9.60;99.90;;;9.52;81.57;100073.88;5076357;28;20062;-84
2023/12/28 04:00:23;;;;;;;6.43;2.70;;;9.60;99.90;;;9.53;81.53;100072.84;5077558;28;20040;-84
2023/12/28 04:02:52;;;;;;;7.03;2.88;;;9.60;99.90;;;9.57;81.37;100070.59;5076373;28;20052;-84
2023/12/28 04:05:20;;;;;;;8.20;3.08;;;9.60;99.90;;;9.56;81.34;100077.72;5076058;28;20072;-84
2023/12/28 04:07:49;;;;;;;5.35;2.80;;;9.70;99.90;;;9.55;81.10;100073.44;5076245;28;20503;-84
2023/12/28 04:10:31;;;;;;;9.52;3.13;;;9.70;99.90;;;9.62;81.12;100078.75;5075801;28;20040;-84
2023/12/28 04:13:02;;;;;;;7.55;2.90;;;9.70;99.90;;;9.61;81.15;100077.91;5075907;28;20054;-84
2023/12/28 04:15:31;;;;;;;6.75;2.95;;;9.70;99.90;;;9.62;81.36;100068.91;5058994;28;20063;-84
2023/12/28 04:17:59;;;;;;;9.57;3.22;;;9.70;99.90;;;9.64;81.22;100077.47;5074974;28;20062;-84
2023/12/28 04:20:26;;;;;;;5.97;2.90;;;9.70;99.90;;;9.64;80.75;100068.69;5075418;28;20089;-84
2023/12/28 04:22:55;;;;;;;5.93;2.65;;;9.80;99.90;;;9.62;80.87;100068.91;5076532;28;20097;-84
2023/12/28 04:25:23;;;;;;;6.53;2.50;;;9.80;99.90;;;9.66;80.77;100074.59;5079942;28;20041;-85
2023/12/28 04:27:51;;;;;;;7.30;2.85;;;9.80;99.90;;;9.65;80.81;100064.97;5075297;28;20112;-84
2023/12/28 04:30:18;;;;;;;5.22;2.40;;;9.80;99.90;;;9.66;80.97;100066.59;5041317;28;20052;-84
2023/12/28 04:32:46;;;;;;;5.97;2.40;;;9.80;99.90;;;9.69;80.54;100067.00;5076054;28;20131;-84
2023/12/28 04:35:13;;;;;;;6.07;2.65;;;9.80;99.90;;;9.67;80.37;100053.09;5078573;28;20048;-84
2023/12/28 04:37:41;;;;;;;8.20;2.90;;;9.80;99.90;;;9.69;80.32;100052.88;5077938;28;20565;-84
2023/12/28 04:40:14;;;;;;;4.90;2.58;;;9.80;99.90;;;9.68;80.19;100068.03;5077152;28;20040;-85
2023/12/28 04:42:42;;;;;;;5.63;2.60;;;9.80;99.90;;;9.65;80.05;100049.81;5079747;28;20522;-84
2023/12/28 04:45:11;;;;;;;6.35;2.50;;;9.80;99.90;;;9.66;79.87;100059.47;5077400;28;20568;-84
2023/12/28 04:47:38;;;;;;;8.63;2.55;;;9.90;99.90;;;9.72;80.09;100073.75;5078554;28;20052;-84
2023/12/28 04:50:08;;;;;;;5.47;2.40;;;9.90;99.90;;;9.72;79.86;100071.91;5091623;28;20044;-84
2023/12/28 04:52:36;;;;;;;6.18;2.65;;;9.90;99.90;;;9.72;79.55;100068.44;5096469;28;20043;-84
2023/12/28 04:55:03;;;;;;;8.15;2.83;;;9.90;99.90;;;9.73;79.20;100072.72;5047254;28;20044;-85
2023/12/28 04:57:32;;;;;;;6.18;2.35;;;9.90;99.90;;;9.74;79.24;100061.03;5060913;28;20543;-84
2023/12/28 04:59:59;;;;;;;10.07;3.33;;;9.90;99.90;;;9.76;79.53;100070.44;5069815;28;20052;-84
2023/12/28 05:02:28;;;;;;;5.82;2.40;;;9.90;99.90;;;9.76;79.19;100059.81;5069149;28;20087;-84
2023/12/28 05:04:56;;;;;;;7.90;2.38;;;9.90;99.90;;;9.77;79.26;100072.06;5059656;28;20147;-84
2023/12/28 05:07:24;;;;;;;6.93;2.22;;;9.90;99.90;;;9.78;79.13;100073.69;5076505;28;20135;-84
2023/12/28 05:09:52;;;;;;;6.35;2.55;;;9.90;99.90;;;9.76;79.20;100080.25;5097480;28;20101;-84
2023/12/28 05:12:19;;;;;;;6.47;2.50;;;9.90;99.90;;;9.78;79.08;100086.22;5080548;28;20154;-84
2023/12/28 05:14:48;;;;;;;6.63;2.40;;;9.90;99.90;;;9.80;78.78;100082.28;5079374;28;20049;-84
2023/12/28 05:17:16;;;;;;;6.70;2.13;;;9.90;99.90;;;9.78;78.44;100084.34;5077423;28;20412;-84
2023/12/28 05:19:43;;;;;;;6.63;2.17;;;9.90;99.90;;;9.79;78.21;100095.81;5075583;28;20040;-84
2023/12/28 05:22:12;;;;;;;5.93;2.30;;;9.90;99.90;;;9.80;78.26;100100.09;5077151;28;20127;-85
2023/12/28 05:24:39;;;;;;;6.03;2.10;;;10.00;99.90;;;9.83;78.45;100097.03;5075549;28;20569;-84
2023/12/28 05:27:07;;;;;;;7.80;2.25;;;10.00;99.90;;;9.85;78.47;100104.78;5076873;28;20096;-84
2023/12/28 05:29:34;;;;;;;7.35;2.65;;;10.00;99.90;;;9.88;78.43;100099.03;5075732;28;20075;-84
2023/12/28 05:32:03;;;;;;;7.25;2.45;;;9.90;99.90;;;9.87;77.85;100100.09;5076739;28;20055;-84
2023/12/28 05:34:31;;;;;;;6.53;2.28;;;10.00;99.90;;;9.82;77.68;100102.56;5076898;28;20123;-84
2023/12/28 05:36:59;;;;;;;8.38;2.25;;;10.00;99.90;;;9.83;77.09;100105.00;5075044;28;20044;-84
2023/12/28 05:39:28;;;;;;;4.97;1.90;;;10.00;99.90;;;9.88;77.04;100117.69;5075761;28;20106;-84
2023/12/28 05:41:56;;;;;;;8.25;2.67;;;10.00;99.90;;;9.84;77.07;100097.84;5059034;28;20113;-84
2023/12/28 05:44:23;;;;;;;5.28;2.33;;;10.00;99.90;;;9.86;76.97;100101.09;5075793;28;20040;-84
2023/12/28 05:46:52;;;;;;;6.13;2.22;;;10.00;99.90;;;9.88;76.77;100102.53;5075734;28;20416;-84
2023/12/28 05:49:21;;;;;;;7.60;2.08;;;10.00;99.90;;;9.89;77.09;100098.00;5075893;28;20045;-84
2023/12/28 05:51:48;;;;;;;5.43;2.28;;;10.00;99.90;;;9.86;77.41;100101.94;5077417;28;20067;-84
2023/12/28 05:54:15;;;;;;;7.50;2.30;;;10.00;99.90;;;9.87;77.09;100110.75;5075552;28;20048;-84
2023/12/28 05:56:43;;;;;;;6.75;2.10;;;10.00;99.90;;;9.87;77.26;100113.41;5076443;28;20044;-84
2023/12/28 05:59:10;;;;;;;5.47;2.08;;;10.00;99.90;;;9.84;76.80;100119.97;5076629;28;20070;-84
2023/12/28 06:01:44;;;;;;;9.15;2.45;;;10.00;99.90;;;9.85;76.00;100115.44;5075119;28;20086;-84
2023/12/28 06:04:12;;;;;;;8.73;2.10;;;10.00;99.90;;;9.90;75.83;100134.25;5075895;28;20119;-84
2023/12/28 06:06:40;;;;;;;7.85;2.55;;;10.00;99.90;;;9.92;75.98;100126.88;5076052;28;20040;-84
2023/12/28 06:09:08;;;;;;;6.60;2.28;;;10.10;99.90;;;9.89;76.13;100132.63;5076347;28;20090;-84
2023/12/28 06:11:35;;;;;;;10.75;2.40;;;10.00;99.90;;;9.91;76.39;100141.25;5077346;28;20063;-84
2023/12/28 06:14:03;;;;;;;7.00;2.17;;;10.00;99.90;;;9.93;76.65;100141.84;5076381;28;20071;-84
2023/12/28 06:16:32;;;;;;;4.43;1.90;;;10.00;99.90;;;9.90;75.96;100140.41;5076698;28;20048;-84
2023/12/28 06:19:01;;;;;;;6.82;2.20;;;10.00;99.90;;;9.86;75.71;100138.38;5077827;28;20049;-84
2023/12/28 06:21:30;;;;;;;7.00;2.20;;;10.00;99.90;;;9.88;75.30;100144.31;5078529;28;20070;-84
2023/12/28 06:23:59;;;;;;;9.23;2.30;;;10.00;99.90;;;9.90;75.75;100139.59;5077706;28;20049;-84
2023/12/28 06:26:26;;;;;;;6.78;2.20;;;10.00;99.90;;;9.89;75.35;100133.44;5077942;28;20580;-84
2023/12/28 06:28:53;;;;;;;7.70;2.53;;;10.00;99.90;;;9.89;75.36;100124.66;5076367;28;20043;-84
2023/12/28 06:31:20;;;;;;;12.73;2.60;;;10.00;99.90;;;9.92;75.43;100133.03;5078191;28;20049;-84
2023/12/28 06:33:48;;;;;;;7.32;2.10;;;10.00;99.90;;;9.89;75.22;100129.97;5076494;28;20045;-84
2023/12/28 06:36:15;;;;;;;5.72;2.22;;;10.00;99.90;;;9.89;75.45;100138.78;5079061;28;20032;-84
2023/12/28 06:38:43;;;;;;;8.38;2.08;;;10.00;99.90;;;9.85;75.22;100148.22;5078967;28;20037;-84
2023/12/28 06:41:15;;;;;;;8.98;2.38;;;10.00;99.90;;;9.89;75.04;100132.63;5077495;28;20127;-84
2023/12/28 06:43:43;;;;;;;11.73;2.42;;;10.00;99.90;;;9.84;75.24;100141.28;5077497;28;20098;-84
2023/12/28 06:46:10;;;;;;;10.15;2.47;;;10.00;99.90;;;9.82;74.56;100140.69;5078601;28;20055;-84
2023/12/28 06:48:40;;;;;;;5.72;2.30;;;10.00;99.90;;;9.83;74.98;100146.81;5078208;28;20112;-84
2023/12/28 06:51:07;;;;;;;8.55;2.30;;;10.00;99.90;;;9.84;74.98;100124.47;5077509;28;20056;-84
2023/12/28 06:53:36;;;;;;;11.25;2.40;;;9.90;99.90;;;9.76;74.58;100128.19;5077051;28;20044;-84
2023/12/28 06:56:05;;;;;;;7.00;2.22;;;9.90;99.90;;;9.82;74.79;100140.69;5075951;28;20051;-84
2023/12/28 06:58:34;;;;;;;8.25;2.42;;;9.90;99.90;;;9.86;74.76;100133.06;5076864;28;20071;-84
2023/12/28 07:01:04;;;;;;;8.70;2.72;;;9.90;99.90;;;9.88;74.96;100136.34;5059447;28;20053;-84
2023/12/28 07:03:32;;;;;;;9.00;2.53;;;9.90;99.90;;;9.85;75.12;100147.41;5076586;28;20487;-84
2023/12/28 07:06:00;;;;;;;7.15;2.00;;;9.80;99.90;;;9.85;74.84;100137.56;5075289;28;20044;-84
2023/12/28 07:08:28;;;;;;;7.60;2.10;;;9.90;99.90;;;9.85;74.58;100129.56;5074544;28;20448;-84
2023/12/28 07:10:55;;;;;;;7.35;2.20;;;9.90;99.90;;;9.84;74.48;100148.44;5076688;28;20051;-84
2023/12/28 07:13:23;;;;;;;8.82;2.08;;;9.90;99.90;;;9.88;74.63;100137.16;5075188;28;20400;-84
2023/12/28 07:15:54;;;;;;;8.65;2.20;;;10.00;99.90;;;9.87;74.22;100140.03;5075522;28;20053;-84
2023/12/28 07:18:22;;;;;;;7.88;2.05;;;10.00;99.90;;;9.87;74.22;100140.84;5075015;28;20416;-84
2023/12/28 07:20:49;;;;;;;5.68;2.25;;;10.00;99.90;;;9.87;74.45;100124.88;5076787;28;20109;-84
2023/12/28 07:23:17;;;;;;;7.22;1.90;;;10.00;99.90;;;9.86;74.14;100138.38;5058353;28;20527;-84
2023/12/28 07:25:44;;;;;;;7.85;2.08;;;10.00;99.90;;;9.85;73.90;100137.56;5074454;28;20045;-84
2023/12/28 07:28:12;;;;;;;9.65;2.60;;;10.00;99.90;;;9.90;73.98;100139.59;5058486;28;20044;-84
2023/12/28 07:30:41;;;;;;;8.95;2.22;;;10.00;99.90;;;9.85;74.14;100132.25;5057374;28;20048;-84
2023/12/28 07:33:10;;;;;;;10.80;2.83;;;10.00;99.90;;;9.88;74.15;100136.34;5068458;28;20420;-84
2023/12/28 07:35:38;;;;;;;8.63;2.50;;;10.00;99.90;;;9.88;74.06;100139.00;5079401;28;20051;-84
2023/12/28 07:38:06;;;;;;;8.95;2.42;;;10.00;99.90;;;9.85;74.15;100145.56;5079262;28;20037;-83
2023/12/28 07:40:33;;;;;;;8.98;2.10;;;10.00;99.90;;;9.85;74.43;100152.72;5079918;28;20407;-84
2023/12/28 07:43:02;;;;;;;8.15;2.03;;;10.00;99.90;;;9.85;74.49;100161.53;5082192;28;20177;-84
2023/12/28 07:45:30;;;;;;;14.68;2.40;;;10.00;99.90;;;9.90;74.59;100161.72;5082147;28;20075;-84
2023/12/28 07:47:57;;;;;;;7.38;2.17;;;10.00;99.90;;;9.92;74.46;100162.34;5081255;28;20131;-84
2023/12/28 07:50:26;;;;;;;10.48;2.55;;;10.00;99.90;;;9.94;74.22;100167.44;5081130;28;20132;-84
2023/12/28 07:52:54;;;;;;;9.95;2.45;;;10.00;99.90;;;9.93;74.11;100163.16;5080546;28;20067;-84
2023/12/28 07:55:22;;;;;;;8.48;2.35;;;10.00;99.90;;;9.93;73.79;100177.28;5063867;28;20550;-84
2023/12/28 07:57:49;;;;;;;9.00;2.38;;;10.00;99.90;;;9.97;73.98;100191.81;5081745;28;20092;-85
2023/12/28 08:00:17;;;;;;;8.10;2.03;;;10.10;99.90;;;9.94;73.66;100186.09;5063425;28;20076;-84
2023/12/28 08:02:45;;;;;;;11.10;2.80;;;10.10;99.90;;;9.95;73.63;100193.84;5081555;28;20044;-85
2023/12/28 08:05:13;;;;;;;11.60;2.50;;;10.10;99.90;;;9.98;73.61;100206.75;5081549;28;20488;-85
2023/12/28 08:07:42;;;;;;;8.30;2.20;;;10.10;99.90;;;9.97;73.71;100205.13;5082499;28;20041;-84
2023/12/28 08:10:10;;;;;;;10.13;2.28;;;10.10;99.90;;;10.00;73.82;100203.88;5047421;28;20044;-84
2023/12/28 08:12:39;;;;;;;12.82;2.60;;;10.10;99.90;;;9.98;73.97;100200.63;5063128;28;20499;-84
2023/12/28 08:15:08;;;;;;;8.90;2.38;;;10.10;99.90;;;10.00;73.86;100199.38;5080184;28;20045;-84
2023/12/28 08:17:35;;;;;;;11.02;2.45;;;10.10;99.90;;;10.00;73.81;100199.38;5080401;28;20495;-84
2023/12/28 08:20:03;;;;;;;13.18;2.35;;;10.10;99.90;;;10.01;73.75;100201.00;5097549;28;20106;-84
2023/12/28 08:22:31;;;;;;;14.55;2.90;;;10.10;99.90;;;10.01;73.41;100206.34;5064101;28;20048;-84
2023/12/28 08:25:01;;;;;;;12.65;2.63;;;10.10;99.90;;;10.03;73.44;100206.13;5076427;28;20040;-85
2023/12/28 08:27:29;;;;;;;11.63;2.20;;;10.10;99.90;;;10.04;73.75;100211.22;5080022;28;20044;-85
2023/12/28 08:29:56;;;;;;;11.95;2.90;;;10.10;99.90;;;10.08;73.80;100206.28;5043835;28;20052;-85
2023/12/28 08:32:23;;;;;;;12.30;2.35;;;10.10;99.90;;;10.03;73.06;100201.59;5071122;28;20040;-84
2023/12/28 08:34:53;;;;;;;11.23;2.75;;;10.10;99.90;;;10.06;73.76;100219.03;5050830;28;20045;-85
2023/12/28 08:37:21;;;;;;;9.40;2.60;;;10.20;99.90;;;10.09;73.70;100223.91;5076182;28;20040;-84
2023/12/28 08:39:49;;;;;;;10.48;2.55;;;10.20;99.90;;;10.10;73.39;100228.19;5079973;28;20052;-85
2023/12/28 08:42:18;;;;;;;10.52;2.28;;;10.20;99.90;;;10.10;73.40;100220.19;5079164;28;20123;-85
2023/12/28 08:44:48;;;;;;;12.98;2.90;;;10.20;99.90;;;10.14;73.68;100226.75;5076935;28;20102;-84
2023/12/28 08:47:16;;;;;;;9.80;2.35;;;10.20;99.90;;;10.14;73.31;100228.59;5079586;28;20051;-84
2023/12/28 08:49:43;;;;;;;9.38;2.15;;;10.20;99.90;;;10.14;73.38;100229.41;5078360;28;20037;-84
2023/12/28 08:52:11;;;;;;;13.20;2.83;;;10.30;99.90;;;10.12;72.78;100226.16;5076978;28;20535;-85
2023/12/28 08:54:39;;;;;;;11.70;2.55;;;10.20;99.90;;;10.12;73.25;100223.50;5075867;28;20097;-85
2023/12/28 08:57:06;;;;;;;11.70;2.83;;;10.20;99.90;;;10.12;72.91;100228.81;5075491;28;20094;-85
2023/12/28 08:59:38;;;;;;;8.63;2.15;;;10.20;99.90;;;10.15;73.34;100235.56;5075262;28;20072;-85
2023/12/28 09:02:07;;;;;;;9.98;2.13;;;10.30;99.90;;;10.13;72.74;100245.63;5075581;28;20114;-85
2023/12/28 09:04:35;;;;;;;7.35;2.00;;;10.30;99.90;;;10.13;73.10;100246.44;5074712;28;20049;-85
2023/12/28 09:07:02;;;;;;;6.40;2.15;;;10.30;99.90;;;10.12;73.00;100228.00;5076459;28;20128;-85
2023/12/28 09:09:30;;;;;;;10.90;2.53;;;10.30;99.90;;;10.11;73.00;100235.19;5075476;28;20055;-85
2023/12/28 09:11:58;;;;;;;10.63;2.53;;;10.30;99.90;;;10.13;73.07;100241.09;5075711;28;20052;-85
2023/12/28 09:14:25;;;;;;;13.48;3.05;;;10.30;99.90;;;10.13;73.19;100250.94;5076117;28;20048;-85
2023/12/28 09:16:54;;;;;;;12.68;2.42;;;10.30;99.90;;;10.14;72.87;100239.25;5057693;28;20401;-85
2023/12/28 09:19:22;;;;;;;11.93;2.42;;;10.30;99.90;;;10.14;72.90;100241.91;5073438;28;20040;-85
2023/12/28 09:21:52;;;;;;;10.82;2.13;;;10.30;99.90;;;10.19;73.28;100252.75;5094217;28;20051;-85
2023/12/28 09:24:20;;;;;;;11.30;2.53;;;10.30;99.90;;;10.17;73.05;100247.66;5055807;28;20410;-85
2023/12/28 09:26:48;;;;;;;14.73;2.45;;;10.30;99.90;;;10.18;73.53;100249.28;5070956;28;20036;-86
2023/12/28 09:29:21;;;;;;;15.90;3.17;;;10.30;99.90;;;10.22;73.29;100253.16;5072469;28;20043;-86
2023/12/28 09:31:49;;;;;;;12.57;2.63;;;10.30;99.90;;;10.24;73.07;100256.44;5073663;28;20040;-85
2023/12/28 09:34:18;;;;;;;11.05;3.05;;;10.40;99.90;;;10.24;73.20;100248.44;5067791;28;20045;-85
2023/12/28 09:36:46;;;;;;;9.40;2.22;;;10.40;99.90;;;10.25;72.85;100247.44;5073062;28;20047;-85
2023/12/28 09:39:14;;;;;;;17.45;3.30;;;10.40;99.90;;;10.25;72.64;100250.09;5073370;28;20071;-86
2023/12/28 09:41:47;;;;;;;7.55;2.08;;;10.30;99.90;;;10.30;72.73;100254.78;5073709;28;20044;-85
2023/12/28 09:44:16;;;;;;;9.20;2.55;;;10.50;99.90;;;10.30;72.10;100258.25;5074137;28;20512;-86
2023/12/28 09:46:44;;;;;;;7.50;1.95;;;10.50;99.90;;;10.37;72.56;100249.41;5073662;28;20123;-86
2023/12/28 09:49:12;;;;;;;19.77;3.13;;;10.50;99.90;;;10.36;72.51;100248.59;5057065;28;20143;-86
2023/12/28 09:51:42;;;;;;;8.55;2.20;;;10.50;99.90;;;10.37;72.77;100249.41;5074456;28;20149;-86
2023/12/28 09:54:11;;;;;;;12.85;2.88;;;10.50;99.90;;;10.36;72.76;100248.59;5055158;28;20044;-85
2023/12/28 09:56:41;;;;;;;11.70;2.77;;;10.50;99.90;;;10.36;72.09;100259.25;5073373;28;20556;-85
2023/12/28 09:59:08;;;;;;;11.90;2.72;;;10.50;99.90;;;10.37;72.36;100252.88;5072794;28;20298;-86
2023/12/28 10:01:36;;;;;;;14.32;2.85;;;10.50;99.90;;;10.36;72.07;100253.09;5074400;28;20090;-85
2023/12/28 10:04:04;;;;;;;12.00;2.60;;;10.50;99.90;;;10.37;72.48;100230.75;5074520;28;20059;-85
2023/12/28 10:06:32;;;;;;;14.13;2.78;;;10.50;99.90;;;10.36;71.98;100240.59;5056287;28;20431;-86
2023/12/28 10:09:01;;;;;;;9.52;2.58;;;10.50;99.90;;;10.35;71.67;100243.47;5074985;28;20102;-86
2023/12/28 10:11:34;;;;;;;14.73;2.38;;;10.50;99.90;;;10.37;72.76;100247.56;5072648;28;20060;-86
2023/12/28 10:14:06;;;;;;;11.23;2.78;;;10.60;99.90;;;10.37;72.58;100238.75;5056205;28;20124;-86
2023/12/28 10:16:35;;;;;;;9.50;2.72;;;10.50;99.90;;;10.34;71.90;100233.81;5072826;28;20048;-86
2023/12/28 10:19:03;;;;;;;11.32;2.50;;;10.60;99.90;;;10.38;71.71;100243.03;5073227;28;20041;-86
2023/12/28 10:21:32;;;;;;;15.73;2.80;;;10.60;99.90;;;10.41;72.50;100232.75;5072413;28;20044;-86
2023/12/28 10:24:04;;;;;;;12.45;2.42;;;10.60;99.90;;;10.42;72.20;100241.56;5073263;28;20044;-86